createdAt,value
2022-09-05T00:00:19.636Z,101625.00
2022-09-05T00:03:29.707Z,101620.00
2022-09-05T00:06:17.105Z,101622.00
2022-09-05T00:09:05.605Z,101620.00
2022-09-05T00:11:44.782Z,101626.00
2022-09-05T00:15:16.218Z,101620.00
2022-09-05T00:20:57.217Z,101612.00
2022-09-05T00:24:31.785Z,101609.00
2022-09-05T00:24:54.723Z,101618.00
2022-09-05T00:28:25.794Z,101619.00
2022-09-05T00:31:53.511Z,101608.00
2022-09-05T00:35:19.473Z,101616.00
2022-09-05T00:37:54.520Z,101619.00
2022-09-05T00:40:32.640Z,101608.00
2022-09-05T00:43:11.405Z,101599.00
2022-09-05T00:46:11.091Z,101607.00
2022-09-05T00:48:53.192Z,101606.00
2022-09-05T00:52:05.060Z,101604.00
2022-09-05T00:55:16.888Z,101601.00
2022-09-05T00:58:18.046Z,101608.00
2022-09-05T01:00:59.460Z,101600.00
2022-09-05T01:03:51.393Z,101613.00
2022-09-05T01:06:50.047Z,101600.00
2022-09-05T01:09:47.668Z,101599.00
2022-09-05T01:12:52.713Z,101601.00
2022-09-05T01:15:44.620Z,101606.00
2022-09-05T01:18:57.918Z,101604.00
2022-09-05T01:22:09.513Z,101605.00
2022-09-05T01:24:54.190Z,101613.00
2022-09-05T01:28:30.857Z,101602.00
2022-09-05T01:31:05.038Z,101605.00
2022-09-05T01:34:04.741Z,101620.00
2022-09-05T01:37:32.776Z,101613.00
2022-09-05T01:40:25.905Z,101607.00
2022-09-05T01:43:25.818Z,101601.00
2022-09-05T01:46:11.617Z,101599.00
2022-09-05T01:48:54.673Z,101607.00
2022-09-05T01:52:08.244Z,101603.00
2022-09-05T01:55:06.892Z,101601.00
2022-09-05T01:57:58.363Z,101613.00
2022-09-05T02:01:30.126Z,101596.00
2022-09-05T02:04:35.581Z,101596.00
2022-09-05T02:07:56.604Z,101605.00
2022-09-05T02:11:04.821Z,101596.00
2022-09-05T02:13:34.894Z,101603.00
2022-09-05T02:16:35.232Z,101599.00
2022-09-05T02:19:12.215Z,101601.00
2022-09-05T02:22:11.227Z,101601.00
2022-09-05T02:24:46.050Z,101596.00
2022-09-05T02:27:53.585Z,101603.00
2022-09-05T02:30:22.110Z,101597.00
2022-09-05T02:33:12.595Z,101601.00
2022-09-05T02:36:04.076Z,101604.00
2022-09-05T02:45:02.533Z,101613.00
2022-09-05T02:45:14.817Z,101607.00
2022-09-05T02:45:26.847Z,101613.00
2022-09-05T02:48:19.573Z,101604.00
2022-09-05T02:57:23.295Z,101604.00
2022-09-05T02:57:38.987Z,101605.00
2022-09-05T02:58:06.230Z,101607.00
2022-09-05T03:01:27.624Z,101605.00
2022-09-05T03:04:20.070Z,101607.00
2022-09-05T03:07:07.106Z,101597.00
2022-09-05T03:10:53.242Z,101600.00
2022-09-05T03:13:48.183Z,101602.00
2022-09-05T03:16:51.145Z,101602.00
2022-09-05T03:19:54.699Z,101604.00
2022-09-05T03:22:43.252Z,101604.00
2022-09-05T03:25:50.520Z,101598.00
2022-09-05T03:29:04.987Z,101599.00
2022-09-05T03:32:05.934Z,101600.00
2022-09-05T03:35:08.462Z,101606.00
2022-09-05T03:38:06.747Z,101606.00
2022-09-05T03:41:07.715Z,101602.00
2022-09-05T03:44:13.218Z,101603.00
2022-09-05T03:47:14.423Z,101605.00
2022-09-05T03:57:04.605Z,101603.00
2022-09-05T03:57:17.818Z,101607.00
2022-09-05T03:57:41.699Z,101609.00
2022-09-05T04:00:25.867Z,101605.00
2022-09-05T04:08:11.269Z,101604.00
2022-09-05T04:08:16.456Z,101604.00
2022-09-05T04:09:49.626Z,101603.00
2022-09-05T04:12:25.105Z,101600.00
2022-09-05T04:15:13.301Z,101603.00
2022-09-05T04:17:50.793Z,101605.00
2022-09-05T04:20:50.167Z,101601.00
2022-09-05T04:23:30.324Z,101614.00
2022-09-05T04:26:27.339Z,101614.00
2022-09-05T04:29:42.735Z,101614.00
2022-09-05T04:32:21.724Z,101614.00
2022-09-05T04:35:38.257Z,101623.00
2022-09-05T04:38:35.423Z,101621.00
2022-09-05T04:41:13.287Z,101624.00
2022-09-05T04:44:29.751Z,101615.00
2022-09-05T04:47:16.756Z,101613.00
2022-09-05T04:50:12.198Z,101616.00
2022-09-05T04:53:17.598Z,101617.00
2022-09-05T04:55:55.574Z,101615.00
2022-09-05T04:59:08.977Z,101618.00
2022-09-05T05:06:00.769Z,101625.00
2022-09-05T05:06:15.112Z,101614.00
2022-09-05T05:08:00.109Z,101625.00
2022-09-05T05:16:14.925Z,101628.00
2022-09-05T05:18:01.553Z,101628.00
2022-09-05T05:18:16.108Z,101632.00
2022-09-05T05:20:40.784Z,101638.00
2022-09-05T05:23:12.297Z,101638.00
2022-09-05T05:26:02.745Z,101638.00
2022-09-05T05:29:08.201Z,101640.00
2022-09-05T05:32:06.175Z,101637.00
2022-09-05T05:34:41.597Z,101646.00
2022-09-05T05:37:32.676Z,101645.00
2022-09-05T05:40:31.636Z,101645.00
2022-09-05T05:43:19.090Z,101640.00
2022-09-05T05:45:46.688Z,101639.00
2022-09-05T05:48:38.213Z,101635.00
2022-09-05T05:51:38.420Z,101636.00
2022-09-05T05:55:24.373Z,101646.00
2022-09-05T05:58:16.460Z,101644.00
2022-09-05T06:00:55.752Z,101639.00
2022-09-05T06:04:09.003Z,101635.00
2022-09-05T06:07:03.656Z,101640.00
2022-09-05T06:14:52.139Z,101641.00
2022-09-05T06:14:57.750Z,101644.00
2022-09-05T06:16:41.570Z,101653.00
2022-09-05T06:22:07.165Z,101651.00
2022-09-05T06:23:36.736Z,101645.00
2022-09-05T06:26:32.281Z,101647.00
2022-09-05T06:29:47.206Z,101654.00
2022-09-05T06:33:08.720Z,101655.00
2022-09-05T06:36:07.242Z,101652.00
2022-09-05T06:39:40.161Z,101649.00
2022-09-05T06:42:44.356Z,101645.00
2022-09-05T06:46:08.332Z,101647.00
2022-09-05T06:49:33.416Z,101653.00
2022-09-05T06:52:24.951Z,101650.00
2022-09-05T06:55:50.388Z,101656.00
2022-09-05T06:59:16.156Z,101660.00
2022-09-05T07:02:01.036Z,101660.00
2022-09-05T07:05:23.441Z,101660.00
2022-09-05T07:08:15.785Z,101656.00
2022-09-05T07:11:15.957Z,101667.00
2022-09-05T07:14:27.498Z,101668.00
2022-09-05T07:17:17.141Z,101675.00
2022-09-05T07:19:51.052Z,101666.00
2022-09-05T07:22:48.111Z,101670.00
2022-09-05T07:25:31.612Z,101674.00
2022-09-05T07:28:28.862Z,101670.00
2022-09-05T07:31:11.255Z,101668.00
2022-09-05T07:33:42.836Z,101668.00
2022-09-05T07:36:18.204Z,101658.00
2022-09-05T07:39:02.320Z,101663.00
2022-09-05T07:41:42.728Z,101664.00
2022-09-05T07:44:23.809Z,101662.00
2022-09-05T07:47:08.870Z,101660.00
2022-09-05T07:49:42.254Z,101667.00
2022-09-05T07:56:56.722Z,101660.00
2022-09-05T07:57:08.507Z,101671.00
2022-09-05T07:58:21.862Z,101657.00
2022-09-05T08:00:58.382Z,101657.00
2022-09-05T08:03:29.436Z,101653.00
2022-09-05T08:06:05.513Z,101659.00
2022-09-05T08:09:21.167Z,101652.00
2022-09-05T08:11:45.286Z,101652.00
2022-09-05T08:14:52.946Z,101653.00
2022-09-05T08:17:30.107Z,101647.00
2022-09-05T08:20:13.222Z,101646.00
2022-09-05T08:23:23.969Z,101645.00
2022-09-05T08:25:57.951Z,101650.00
2022-09-05T08:28:55.478Z,101644.00
2022-09-05T08:31:41.775Z,101643.00
2022-09-05T08:34:39.805Z,101650.00
2022-09-05T08:37:21.591Z,101647.00
2022-09-05T08:40:13.862Z,101649.00
2022-09-05T08:44:58.256Z,101645.00
2022-09-05T08:46:42.970Z,101653.00
2022-09-05T08:49:12.276Z,101651.00
2022-09-05T08:51:54.354Z,101653.00
2022-09-05T08:54:43.910Z,101648.00
2022-09-05T08:58:00.986Z,101644.00
2022-09-05T09:00:37.303Z,101636.00
2022-09-05T09:03:39.915Z,101639.00
2022-09-05T09:07:26.231Z,101629.00
2022-09-05T09:10:39.407Z,101635.00
2022-09-05T09:13:26.609Z,101627.00
2022-09-05T09:16:33.628Z,101614.00
2022-09-05T09:19:12.024Z,101613.00
2022-09-05T09:22:30.466Z,101615.00
2022-09-05T09:25:22.291Z,101613.00
2022-09-05T09:28:50.345Z,101606.00
2022-09-05T09:31:24.169Z,101604.00
2022-09-05T09:34:03.243Z,101607.00
2022-09-05T09:36:57.335Z,101598.00
2022-09-05T09:40:04.740Z,101604.00
2022-09-05T09:42:56.280Z,101603.00
2022-09-05T09:45:55.935Z,101603.00
2022-09-05T09:49:23.004Z,101598.00
2022-09-05T09:52:34.426Z,101590.00
2022-09-05T09:55:42.159Z,101585.00
2022-09-05T09:58:15.160Z,101589.00
2022-09-05T10:01:36.113Z,101593.00
2022-09-05T10:10:39.611Z,101589.00
2022-09-05T10:10:52.197Z,101588.00
2022-09-05T10:14:42.154Z,101589.00
2022-09-05T10:17:50.355Z,101583.00
2022-09-05T10:21:16.435Z,101586.00
2022-09-05T10:24:42.315Z,101590.00
2022-09-05T10:27:25.187Z,101576.00
2022-09-05T10:30:06.627Z,101585.00
2022-09-05T10:35:09.161Z,101578.00
2022-09-05T10:35:53.941Z,101575.00
2022-09-05T10:39:16.213Z,101580.00
2022-09-05T10:42:03.291Z,101572.00
2022-09-05T10:44:58.630Z,101571.00
2022-09-05T10:47:41.386Z,101570.00
2022-09-05T10:50:28.016Z,101568.00
2022-09-05T10:53:21.403Z,101561.00
2022-09-05T10:55:54.707Z,101566.00
2022-09-05T10:59:17.920Z,101565.00
2022-09-05T11:02:29.804Z,101568.00
2022-09-05T11:04:50.232Z,101569.00
2022-09-05T11:07:34.798Z,101565.00
2022-09-05T11:10:22.413Z,101562.00
2022-09-05T11:12:58.872Z,101553.00
2022-09-05T11:16:19.031Z,101545.00
2022-09-05T11:19:06.052Z,101549.00
2022-09-05T11:22:23.226Z,101544.00
2022-09-05T11:25:05.015Z,101537.00
2022-09-05T11:27:41.613Z,101538.00
2022-09-05T11:30:28.903Z,101532.00
2022-09-05T11:39:54.836Z,101525.00
2022-09-05T11:39:58.407Z,101533.00
2022-09-05T11:40:28.929Z,101526.00
2022-09-05T11:44:24.868Z,101535.00
2022-09-05T11:47:43.444Z,101528.00
2022-09-05T11:51:00.377Z,101525.00
2022-09-05T11:54:04.522Z,101524.00
2022-09-05T11:57:33.692Z,101523.00
2022-09-05T12:00:31.614Z,101529.00
2022-09-05T12:03:58.776Z,101519.00
2022-09-05T12:07:00.685Z,101528.00
2022-09-05T12:09:57.292Z,101527.00
2022-09-05T12:12:41.574Z,101535.00
2022-09-05T12:15:37.836Z,101530.00
2022-09-05T12:18:37.631Z,101535.00
2022-09-05T12:21:54.289Z,101533.00
2022-09-05T12:25:25.099Z,101529.00
2022-09-05T12:30:41.729Z,101526.00
2022-09-05T12:36:04.061Z,101521.00
2022-09-05T12:40:48.263Z,101523.00
2022-09-05T12:41:14.845Z,101527.00
2022-09-05T12:41:41.715Z,101526.00
2022-09-05T12:44:36.461Z,101529.00
2022-09-05T12:46:07.002Z,101513.00
2022-09-05T12:49:06.892Z,101512.00
2022-09-05T12:51:47.686Z,101513.00
2022-09-05T12:54:35.561Z,101505.00
2022-09-05T12:57:58.990Z,101506.00
2022-09-05T13:03:09.658Z,101513.00
2022-09-05T13:03:26.797Z,101508.00
2022-09-05T13:06:21.372Z,101512.00
2022-09-05T13:09:01.879Z,101506.00
2022-09-05T13:14:52.691Z,101504.00
2022-09-05T13:14:55.288Z,101499.00
2022-09-05T13:18:19.054Z,101505.00
2022-09-05T13:21:02.455Z,101494.00
2022-09-05T13:23:50.073Z,101489.00
2022-09-05T13:26:37.647Z,101496.00
2022-09-05T13:29:19.740Z,101496.00
2022-09-05T13:37:59.308Z,101496.00
2022-09-05T13:38:14.305Z,101497.00
2022-09-05T13:38:29.014Z,101493.00
2022-09-05T13:40:41.034Z,101503.00
2022-09-05T13:43:22.100Z,101508.00
2022-09-05T13:46:05.061Z,101499.00
2022-09-05T13:52:00.559Z,101490.00
2022-09-05T13:54:50.402Z,101493.00
2022-09-05T13:57:47.628Z,101487.00
2022-09-05T14:00:27.649Z,101493.00
2022-09-05T14:03:37.701Z,101486.00
2022-09-05T14:11:18.314Z,101485.00
2022-09-05T14:15:08.255Z,101489.00
2022-09-05T14:20:37.579Z,101473.00
2022-09-05T14:23:15.899Z,101486.00
2022-09-05T14:26:00.021Z,101469.00
2022-09-05T14:28:40.967Z,101477.00
2022-09-05T14:37:37.322Z,101469.00
2022-09-05T14:37:42.574Z,101469.00
2022-09-05T14:38:16.248Z,101474.00
2022-09-05T14:42:07.937Z,101474.00
2022-09-05T14:45:24.477Z,101462.00
2022-09-05T14:48:14.769Z,101464.00
2022-09-05T14:51:25.440Z,101463.00
2022-09-05T14:54:00.469Z,101460.00
2022-09-05T14:58:17.523Z,101451.00
2022-09-05T15:02:53.580Z,101454.00
2022-09-05T15:03:00.592Z,101446.00
2022-09-05T15:05:29.938Z,101444.00
2022-09-05T15:09:50.924Z,101447.00
2022-09-05T15:12:19.930Z,101434.00
2022-09-05T15:14:13.154Z,101433.00
2022-09-05T15:16:56.454Z,101438.00
2022-09-05T15:20:06.891Z,101437.00
2022-09-05T15:22:42.048Z,101434.00
2022-09-05T15:25:22.763Z,101426.00
2022-09-05T15:27:51.134Z,101431.00
2022-09-05T15:30:25.598Z,101430.00
2022-09-05T15:33:26.178Z,101429.00
2022-09-05T15:35:54.433Z,101427.00
2022-09-05T15:38:54.486Z,101420.00
2022-09-05T15:41:27.601Z,101424.00
2022-09-05T15:44:23.918Z,101423.00
2022-09-05T15:47:05.245Z,101428.00
2022-09-05T15:49:50.221Z,101427.00
2022-09-05T15:52:17.333Z,101428.00
2022-09-05T15:55:01.736Z,101425.00
2022-09-05T15:58:18.710Z,101421.00
2022-09-05T16:00:55.618Z,101416.00
2022-09-05T16:05:08.915Z,101411.00
2022-09-05T16:10:35.755Z,101421.00
2022-09-05T16:10:48.603Z,101427.00
2022-09-05T16:12:44.827Z,101425.00
2022-09-05T16:20:57.096Z,101422.00
2022-09-05T16:23:17.072Z,101418.00
2022-09-05T16:23:25.481Z,101412.00
2022-09-05T16:24:59.154Z,101417.00
2022-09-05T16:27:57.056Z,101408.00
2022-09-05T16:30:36.599Z,101406.00
2022-09-05T16:33:30.137Z,101406.00
2022-09-05T16:36:18.225Z,101421.00
2022-09-05T16:38:53.384Z,101416.00
2022-09-05T16:41:29.411Z,101405.00
2022-09-05T16:44:07.734Z,101407.00
2022-09-05T16:46:51.381Z,101399.00
2022-09-05T16:49:43.087Z,101398.00
2022-09-05T16:52:17.772Z,101404.00
2022-09-05T16:55:11.272Z,101396.00
2022-09-05T16:57:59.371Z,101390.00
2022-09-05T17:00:45.185Z,101389.00
2022-09-05T17:03:53.468Z,101387.00
2022-09-05T17:06:55.902Z,101386.00
2022-09-05T17:09:38.804Z,101387.00
2022-09-05T17:12:26.137Z,101377.00
2022-09-05T17:15:03.320Z,101381.00
2022-09-05T17:18:20.369Z,101377.00
2022-09-05T17:20:57.182Z,101378.00
2022-09-05T17:28:13.682Z,101377.00
2022-09-05T17:29:47.362Z,101377.00
2022-09-05T17:32:52.234Z,101364.00
2022-09-05T17:35:53.783Z,101372.00
2022-09-05T17:39:14.869Z,101366.00
2022-09-05T17:41:56.538Z,101366.00
2022-09-05T17:44:53.161Z,101374.00
2022-09-05T17:47:53.951Z,101372.00
2022-09-05T17:50:27.990Z,101368.00
2022-09-05T17:53:26.022Z,101371.00
2022-09-05T17:55:55.174Z,101372.00
2022-09-05T17:58:28.266Z,101366.00
2022-09-05T18:01:26.680Z,101376.00
2022-09-05T18:04:15.784Z,101371.00
2022-09-05T18:06:59.279Z,101378.00
2022-09-05T18:09:47.969Z,101375.00
2022-09-05T18:13:13.347Z,101379.00
2022-09-05T18:15:36.621Z,101378.00
2022-09-05T18:18:39.845Z,101380.00
2022-09-05T18:21:21.769Z,101380.00
2022-09-05T18:24:32.726Z,101379.00
2022-09-05T18:27:31.012Z,101372.00
2022-09-05T18:30:27.811Z,101370.00
2022-09-05T18:33:56.353Z,101364.00
2022-09-05T18:35:48.040Z,101365.00
2022-09-05T18:38:51.690Z,101368.00
2022-09-05T18:41:28.278Z,101368.00
2022-09-05T18:44:13.699Z,101369.00
2022-09-05T18:46:54.525Z,101380.00
2022-09-05T18:50:21.653Z,101383.00
2022-09-05T18:52:23.904Z,101388.00
2022-09-05T18:56:10.184Z,101390.00
2022-09-05T18:57:58.020Z,101391.00
2022-09-05T19:00:46.885Z,101397.00
2022-09-05T19:03:31.855Z,101386.00
2022-09-05T19:06:36.524Z,101381.00
2022-09-05T19:09:04.574Z,101378.00
2022-09-05T19:12:34.992Z,101374.00
2022-09-05T19:15:08.256Z,101372.00
2022-09-05T19:17:47.478Z,101370.00
2022-09-05T19:20:58.366Z,101379.00
2022-09-05T19:23:40.582Z,101375.00
2022-09-05T19:26:10.081Z,101372.00
2022-09-05T19:36:44.536Z,101370.00
2022-09-05T19:36:49.415Z,101369.00
2022-09-05T19:37:06.457Z,101365.00
2022-09-05T19:37:41.047Z,101352.00
2022-09-05T19:47:28.523Z,101352.00
2022-09-05T19:47:49.755Z,101356.00
2022-09-05T19:47:50.994Z,101361.00
2022-09-05T19:49:13.631Z,101347.00
2022-09-05T19:51:42.053Z,101355.00
2022-09-05T19:54:35.800Z,101351.00
2022-09-05T19:57:14.740Z,101355.00
2022-09-05T19:59:46.132Z,101352.00
2022-09-05T20:02:37.798Z,101350.00
2022-09-05T20:05:08.366Z,101344.00
2022-09-05T20:07:53.149Z,101345.00
2022-09-05T20:10:36.313Z,101347.00
2022-09-05T20:13:26.797Z,101350.00
2022-09-05T20:15:54.426Z,101349.00
2022-09-05T20:18:59.517Z,101350.00
2022-09-05T20:21:30.507Z,101347.00
2022-09-05T20:23:59.953Z,101358.00
2022-09-05T20:26:33.675Z,101341.00
2022-09-05T20:29:09.207Z,101355.00
2022-09-05T20:31:37.679Z,101348.00
2022-09-05T20:36:43.996Z,101334.00
2022-09-05T20:43:16.238Z,101341.00
2022-09-05T20:43:21.749Z,101343.00
2022-09-05T20:43:23.805Z,101330.00
2022-09-05T20:46:17.569Z,101323.00
2022-09-05T20:54:06.526Z,101327.00
2022-09-05T20:54:19.753Z,101320.00
2022-09-05T20:54:34.806Z,101326.00
2022-09-05T20:57:19.736Z,101326.00
2022-09-05T20:59:47.487Z,101322.00
2022-09-05T21:02:26.305Z,101317.00
2022-09-05T21:05:20.969Z,101310.00
2022-09-05T21:08:07.085Z,101317.00
2022-09-05T21:10:57.865Z,101312.00
2022-09-05T21:13:52.812Z,101317.00
2022-09-05T21:16:30.677Z,101310.00
2022-09-05T21:18:58.092Z,101312.00
2022-09-05T21:21:32.511Z,101319.00
2022-09-05T21:24:17.344Z,101318.00
2022-09-05T21:26:50.477Z,101325.00
2022-09-05T21:29:32.313Z,101319.00
2022-09-05T21:32:10.348Z,101322.00
2022-09-05T21:34:47.395Z,101325.00
2022-09-05T21:37:18.960Z,101324.00
2022-09-05T21:39:59.590Z,101333.00
2022-09-05T21:46:53.502Z,101328.00
2022-09-05T21:47:40.384Z,101336.00
2022-09-05T21:48:15.353Z,101332.00
2022-09-05T21:50:49.662Z,101333.00
2022-09-05T21:56:08.802Z,101326.00
2022-09-05T21:59:16.682Z,101320.00
2022-09-05T22:02:08.786Z,101323.00
2022-09-05T22:04:40.879Z,101316.00
2022-09-05T22:07:16.399Z,101317.00
2022-09-05T22:09:56.841Z,101312.00
2022-09-05T22:12:33.709Z,101299.00
2022-09-05T22:15:28.373Z,101313.00
2022-09-05T22:17:57.016Z,101315.00
2022-09-05T22:20:44.435Z,101341.00
2022-09-05T22:23:12.133Z,101339.00
2022-09-05T22:25:40.050Z,101330.00
2022-09-05T22:28:20.130Z,101318.00
2022-09-05T22:30:53.908Z,101319.00
2022-09-05T22:33:21.116Z,101332.00
2022-09-05T22:35:48.481Z,101347.00
2022-09-05T22:38:19.876Z,101357.00
2022-09-05T22:40:48.044Z,101362.00
2022-09-05T22:43:19.509Z,101345.00
2022-09-05T22:45:47.289Z,101342.00
2022-09-05T22:48:15.139Z,101340.00
2022-09-05T22:50:42.926Z,101356.00
2022-09-05T22:53:10.617Z,101350.00
2022-09-05T22:55:41.646Z,101345.00
2022-09-05T22:58:14.116Z,101348.00
2022-09-05T23:00:41.957Z,101335.00
2022-09-05T23:03:09.246Z,101332.00
2022-09-05T23:05:36.525Z,101346.00
2022-09-05T23:08:06.216Z,101358.00
2022-09-05T23:10:35.527Z,101363.00
2022-09-05T23:14:01.913Z,101370.00
2022-09-05T23:16:29.471Z,101372.00
2022-09-05T23:18:58.701Z,101381.00
2022-09-05T23:21:25.871Z,101383.00
2022-09-05T23:23:53.014Z,101389.00
2022-09-05T23:26:20.569Z,101396.00
2022-09-05T23:28:47.623Z,101402.00
2022-09-05T23:31:15.042Z,101396.00
2022-09-05T23:33:42.550Z,101402.00
2022-09-05T23:36:16.102Z,101388.00
2022-09-05T23:38:44.164Z,101388.00
2022-09-05T23:41:16.017Z,101379.00
2022-09-05T23:43:43.187Z,101375.00
2022-09-05T23:46:10.732Z,101375.00
2022-09-05T23:48:38.004Z,101372.00
2022-09-05T23:51:07.968Z,101364.00
2022-09-05T23:53:35.908Z,101352.00
2022-09-05T23:56:05.825Z,101350.00
2022-09-05T23:58:33.508Z,101348.00
